sensor_id;sensor_type;location;lat;lon;timestamp;P1;durP1;ratioP1;P2;durP2;ratioP2
6173;SDS011;3120;48.796;9.796;2024-01-11T00:00:08;104.90;;;41.65;;
6173;SDS011;3120;48.796;9.796;2024-01-11T00:02:34;122.30;;;44.22;;
6173;SDS011;3120;48.796;9.796;2024-01-11T00:04:59;115.20;;;42.20;;
6173;SDS011;3120;48.796;9.796;2024-01-11T00:07:25;106.78;;;40.47;;
6173;SDS011;3120;48.796;9.796;2024-01-11T00:09:50;105.28;;;41.38;;
6173;SDS011;3120;48.796;9.796;2024-01-11T00:12:16;109.43;;;42.65;;
6173;SDS011;3120;48.796;9.796;2024-01-11T00:14:41;118.32;;;42.90;;
6173;SDS011;3120;48.796;9.796;2024-01-11T00:17:07;106.43;;;43.08;;
6173;SDS011;3120;48.796;9.796;2024-01-11T00:19:32;109.55;;;42.95;;
6173;SDS011;3120;48.796;9.796;2024-01-11T00:21:58;121.53;;;43.35;;
6173;SDS011;3120;48.796;9.796;2024-01-11T00:24:24;108.35;;;44.58;;
6173;SDS011;3120;48.796;9.796;2024-01-11T00:26:49;112.85;;;41.22;;
6173;SDS011;3120;48.796;9.796;2024-01-11T00:29:15;115.75;;;42.08;;
6173;SDS011;3120;48.796;9.796;2024-01-11T00:31:40;103.25;;;39.40;;
6173;SDS011;3120;48.796;9.796;2024-01-11T00:34:06;106.55;;;40.42;;
6173;SDS011;3120;48.796;9.796;2024-01-11T00:36:31;121.97;;;44.72;;
6173;SDS011;3120;48.796;9.796;2024-01-11T00:39:01;117.10;;;43.92;;
6173;SDS011;3120;48.796;9.796;2024-01-11T00:41:27;116.88;;;44.50;;
6173;SDS011;3120;48.796;9.796;2024-01-11T00:43:53;118.35;;;41.00;;
6173;SDS011;3120;48.796;9.796;2024-01-11T00:46:18;106.75;;;40.50;;
6173;SDS011;3120;48.796;9.796;2024-01-11T00:48:44;121.60;;;41.58;;
6173;SDS011;3120;48.796;9.796;2024-01-11T00:51:09;105.80;;;40.83;;
6173;SDS011;3120;48.796;9.796;2024-01-11T00:53:35;123.20;;;43.05;;
6173;SDS011;3120;48.796;9.796;2024-01-11T00:56:01;108.95;;;41.78;;
6173;SDS011;3120;48.796;9.796;2024-01-11T00:58:26;112.53;;;41.63;;
6173;SDS011;3120;48.796;9.796;2024-01-11T01:00:52;116.30;;;42.05;;
6173;SDS011;3120;48.796;9.796;2024-01-11T01:03:19;121.85;;;43.53;;
6173;SDS011;3120;48.796;9.796;2024-01-11T01:05:45;99.80;;;41.42;;
6173;SDS011;3120;48.796;9.796;2024-01-11T01:08:11;114.65;;;42.03;;
6173;SDS011;3120;48.796;9.796;2024-01-11T01:10:37;105.00;;;42.58;;
6173;SDS011;3120;48.796;9.796;2024-01-11T01:13:02;110.95;;;42.45;;
6173;SDS011;3120;48.796;9.796;2024-01-11T01:15:28;119.07;;;42.38;;
6173;SDS011;3120;48.796;9.796;2024-01-11T01:17:54;114.35;;;42.20;;
6173;SDS011;3120;48.796;9.796;2024-01-11T01:22:47;112.47;;;42.33;;
6173;SDS011;3120;48.796;9.796;2024-01-11T01:25:13;107.13;;;40.35;;
6173;SDS011;3120;48.796;9.796;2024-01-11T01:27:38;108.93;;;42.25;;
6173;SDS011;3120;48.796;9.796;2024-01-11T01:30:04;111.30;;;40.80;;
6173;SDS011;3120;48.796;9.796;2024-01-11T01:32:31;107.43;;;41.72;;
6173;SDS011;3120;48.796;9.796;2024-01-11T01:34:57;110.65;;;40.60;;
6173;SDS011;3120;48.796;9.796;2024-01-11T01:37:23;110.07;;;41.78;;
6173;SDS011;3120;48.796;9.796;2024-01-11T01:39:48;108.57;;;41.70;;
6173;SDS011;3120;48.796;9.796;2024-01-11T01:42:14;105.47;;;41.05;;
6173;SDS011;3120;48.796;9.796;2024-01-11T01:44:39;103.20;;;39.28;;
6173;SDS011;3120;48.796;9.796;2024-01-11T01:47:06;107.78;;;42.33;;
6173;SDS011;3120;48.796;9.796;2024-01-11T01:49:33;92.60;;;38.30;;
6173;SDS011;3120;48.796;9.796;2024-01-11T01:51:59;97.50;;;39.10;;
6173;SDS011;3120;48.796;9.796;2024-01-11T01:54:25;111.40;;;43.53;;
6173;SDS011;3120;48.796;9.796;2024-01-11T01:56:52;104.90;;;39.42;;
6173;SDS011;3120;48.796;9.796;2024-01-11T01:59:18;105.53;;;39.97;;
6173;SDS011;3120;48.796;9.796;2024-01-11T02:01:45;116.38;;;43.28;;
6173;SDS011;3120;48.796;9.796;2024-01-11T02:04:11;103.90;;;38.70;;
6173;SDS011;3120;48.796;9.796;2024-01-11T02:06:37;110.05;;;39.00;;
6173;SDS011;3120;48.796;9.796;2024-01-11T02:09:03;107.60;;;39.00;;
6173;SDS011;3120;48.796;9.796;2024-01-11T02:11:29;100.68;;;38.10;;
6173;SDS011;3120;48.796;9.796;2024-01-11T02:13:55;103.57;;;38.33;;
6173;SDS011;3120;48.796;9.796;2024-01-11T02:16:22;105.53;;;39.45;;
6173;SDS011;3120;48.796;9.796;2024-01-11T02:18:48;99.68;;;38.97;;
6173;SDS011;3120;48.796;9.796;2024-01-11T02:21:14;110.03;;;39.72;;
6173;SDS011;3120;48.796;9.796;2024-01-11T02:23:54;107.07;;;38.95;;
6173;SDS011;3120;48.796;9.796;2024-01-11T02:26:29;115.10;;;38.67;;
6173;SDS011;3120;48.796;9.796;2024-01-11T02:28:55;103.20;;;38.50;;
6173;SDS011;3120;48.796;9.796;2024-01-11T02:31:21;98.25;;;39.42;;
6173;SDS011;3120;48.796;9.796;2024-01-11T02:33:47;98.35;;;37.85;;
6173;SDS011;3120;48.796;9.796;2024-01-11T02:36:13;112.05;;;40.47;;
6173;SDS011;3120;48.796;9.796;2024-01-11T02:38:38;102.38;;;38.97;;
6173;SDS011;3120;48.796;9.796;2024-01-11T02:41:07;97.38;;;37.97;;
6173;SDS011;3120;48.796;9.796;2024-01-11T02:43:33;99.38;;;38.17;;
6173;SDS011;3120;48.796;9.796;2024-01-11T02:46:00;118.63;;;39.25;;
6173;SDS011;3120;48.796;9.796;2024-01-11T02:48:27;92.20;;;36.85;;
6173;SDS011;3120;48.796;9.796;2024-01-11T02:50:53;103.35;;;40.50;;
6173;SDS011;3120;48.796;9.796;2024-01-11T02:53:19;103.93;;;37.92;;
6173;SDS011;3120;48.796;9.796;2024-01-11T02:55:45;107.30;;;38.85;;
6173;SDS011;3120;48.796;9.796;2024-01-11T02:58:11;111.40;;;38.67;;
6173;SDS011;3120;48.796;9.796;2024-01-11T03:00:36;111.78;;;41.75;;
6173;SDS011;3120;48.796;9.796;2024-01-11T03:03:02;104.95;;;38.40;;
6173;SDS011;3120;48.796;9.796;2024-01-11T03:05:27;106.32;;;40.78;;
6173;SDS011;3120;48.796;9.796;2024-01-11T03:07:53;105.32;;;37.42;;
6173;SDS011;3120;48.796;9.796;2024-01-11T03:10:19;105.13;;;41.28;;
6173;SDS011;3120;48.796;9.796;2024-01-11T03:12:44;105.93;;;37.63;;
6173;SDS011;3120;48.796;9.796;2024-01-11T03:15:10;105.43;;;37.92;;
6173;SDS011;3120;48.796;9.796;2024-01-11T03:17:35;105.53;;;38.95;;
6173;SDS011;3120;48.796;9.796;2024-01-11T03:20:01;98.93;;;38.05;;
6173;SDS011;3120;48.796;9.796;2024-01-11T03:22:28;100.60;;;37.08;;
6173;SDS011;3120;48.796;9.796;2024-01-11T03:24:54;89.07;;;36.72;;
6173;SDS011;3120;48.796;9.796;2024-01-11T03:27:19;104.38;;;39.08;;
6173;SDS011;3120;48.796;9.796;2024-01-11T03:29:45;107.63;;;38.08;;
6173;SDS011;3120;48.796;9.796;2024-01-11T03:32:10;104.93;;;38.45;;
6173;SDS011;3120;48.796;9.796;2024-01-11T03:34:38;101.82;;;38.20;;
6173;SDS011;3120;48.796;9.796;2024-01-11T03:37:04;107.38;;;38.92;;
6173;SDS011;3120;48.796;9.796;2024-01-11T03:39:30;92.57;;;35.95;;
6173;SDS011;3120;48.796;9.796;2024-01-11T03:41:55;106.68;;;37.38;;
6173;SDS011;3120;48.796;9.796;2024-01-11T03:44:22;104.30;;;37.28;;
6173;SDS011;3120;48.796;9.796;2024-01-11T03:46:47;99.90;;;37.97;;
6173;SDS011;3120;48.796;9.796;2024-01-11T03:49:13;94.53;;;36.28;;
6173;SDS011;3120;48.796;9.796;2024-01-11T03:51:39;104.72;;;39.13;;
6173;SDS011;3120;48.796;9.796;2024-01-11T03:54:05;105.78;;;38.53;;
6173;SDS011;3120;48.796;9.796;2024-01-11T03:56:30;113.10;;;41.80;;
6173;SDS011;3120;48.796;9.796;2024-01-11T03:58:56;96.13;;;38.50;;
6173;SDS011;3120;48.796;9.796;2024-01-11T04:01:21;101.28;;;39.58;;
6173;SDS011;3120;48.796;9.796;2024-01-11T04:03:47;101.95;;;36.72;;
6173;SDS011;3120;48.796;9.796;2024-01-11T04:06:21;108.72;;;39.25;;
6173;SDS011;3120;48.796;9.796;2024-01-11T04:08:47;123.75;;;40.22;;
6173;SDS011;3120;48.796;9.796;2024-01-11T04:11:13;107.45;;;38.45;;
6173;SDS011;3120;48.796;9.796;2024-01-11T04:13:39;105.10;;;39.00;;
6173;SDS011;3120;48.796;9.796;2024-01-11T04:16:05;102.78;;;36.25;;
6173;SDS011;3120;48.796;9.796;2024-01-11T04:18:31;97.65;;;36.30;;
6173;SDS011;3120;48.796;9.796;2024-01-11T04:20:57;107.18;;;37.33;;
6173;SDS011;3120;48.796;9.796;2024-01-11T04:23:22;93.70;;;33.90;;
6173;SDS011;3120;48.796;9.796;2024-01-11T04:25:48;105.13;;;36.92;;
6173;SDS011;3120;48.796;9.796;2024-01-11T04:28:15;98.40;;;36.80;;
6173;SDS011;3120;48.796;9.796;2024-01-11T04:30:41;107.40;;;36.45;;
6173;SDS011;3120;48.796;9.796;2024-01-11T04:33:06;99.63;;;36.97;;
6173;SDS011;3120;48.796;9.796;2024-01-11T04:35:32;103.30;;;37.50;;
6173;SDS011;3120;48.796;9.796;2024-01-11T04:37:58;91.03;;;36.55;;
6173;SDS011;3120;48.796;9.796;2024-01-11T04:40:24;93.05;;;34.33;;
6173;SDS011;3120;48.796;9.796;2024-01-11T04:42:49;99.93;;;37.30;;
6173;SDS011;3120;48.796;9.796;2024-01-11T04:45:15;95.95;;;37.85;;
6173;SDS011;3120;48.796;9.796;2024-01-11T04:47:40;100.40;;;37.75;;
6173;SDS011;3120;48.796;9.796;2024-01-11T04:50:06;102.03;;;36.45;;
6173;SDS011;3120;48.796;9.796;2024-01-11T04:52:32;115.78;;;38.42;;
6173;SDS011;3120;48.796;9.796;2024-01-11T04:54:58;101.93;;;38.70;;
6173;SDS011;3120;48.796;9.796;2024-01-11T04:57:23;101.35;;;38.83;;
6173;SDS011;3120;48.796;9.796;2024-01-11T04:59:49;104.15;;;37.95;;
6173;SDS011;3120;48.796;9.796;2024-01-11T05:02:14;102.70;;;36.45;;
6173;SDS011;3120;48.796;9.796;2024-01-11T05:04:40;93.20;;;36.17;;
6173;SDS011;3120;48.796;9.796;2024-01-11T05:07:05;111.15;;;38.22;;
6173;SDS011;3120;48.796;9.796;2024-01-11T05:09:31;102.60;;;37.53;;
6173;SDS011;3120;48.796;9.796;2024-01-11T05:11:57;101.43;;;37.78;;
6173;SDS011;3120;48.796;9.796;2024-01-11T05:14:22;119.22;;;40.50;;
6173;SDS011;3120;48.796;9.796;2024-01-11T05:16:48;105.95;;;37.33;;
6173;SDS011;3120;48.796;9.796;2024-01-11T05:19:14;130.85;;;42.67;;
6173;SDS011;3120;48.796;9.796;2024-01-11T05:21:39;114.03;;;41.03;;
6173;SDS011;3120;48.796;9.796;2024-01-11T05:24:05;118.82;;;41.78;;
6173;SDS011;3120;48.796;9.796;2024-01-11T05:26:31;107.50;;;40.40;;
6173;SDS011;3120;48.796;9.796;2024-01-11T05:28:56;113.45;;;41.08;;
6173;SDS011;3120;48.796;9.796;2024-01-11T05:31:22;102.45;;;40.28;;
6173;SDS011;3120;48.796;9.796;2024-01-11T05:33:48;116.28;;;44.25;;
6173;SDS011;3120;48.796;9.796;2024-01-11T05:36:13;106.55;;;39.60;;
6173;SDS011;3120;48.796;9.796;2024-01-11T05:38:39;105.45;;;39.22;;
6173;SDS011;3120;48.796;9.796;2024-01-11T05:41:05;98.05;;;37.40;;
6173;SDS011;3120;48.796;9.796;2024-01-11T05:43:31;103.50;;;36.88;;
6173;SDS011;3120;48.796;9.796;2024-01-11T05:45:56;113.32;;;39.92;;
6173;SDS011;3120;48.796;9.796;2024-01-11T05:48:23;109.22;;;40.65;;
6173;SDS011;3120;48.796;9.796;2024-01-11T05:50:49;116.97;;;39.80;;
6173;SDS011;3120;48.796;9.796;2024-01-11T05:53:15;102.57;;;38.50;;
6173;SDS011;3120;48.796;9.796;2024-01-11T05:55:42;99.78;;;37.63;;
6173;SDS011;3120;48.796;9.796;2024-01-11T05:58:07;104.22;;;40.15;;
6173;SDS011;3120;48.796;9.796;2024-01-11T06:00:33;99.30;;;38.13;;
6173;SDS011;3120;48.796;9.796;2024-01-11T06:02:59;119.75;;;39.67;;
6173;SDS011;3120;48.796;9.796;2024-01-11T06:05:25;111.43;;;38.78;;
6173;SDS011;3120;48.796;9.796;2024-01-11T06:07:51;108.85;;;40.28;;
6173;SDS011;3120;48.796;9.796;2024-01-11T06:10:16;131.50;;;45.35;;
6173;SDS011;3120;48.796;9.796;2024-01-11T06:12:42;130.13;;;46.53;;
6173;SDS011;3120;48.796;9.796;2024-01-11T06:15:08;113.50;;;40.83;;
6173;SDS011;3120;48.796;9.796;2024-01-11T06:17:34;103.88;;;38.78;;
6173;SDS011;3120;48.796;9.796;2024-01-11T06:20:00;103.13;;;36.42;;
6173;SDS011;3120;48.796;9.796;2024-01-11T06:22:26;93.38;;;34.65;;
6173;SDS011;3120;48.796;9.796;2024-01-11T06:24:51;93.38;;;37.08;;
6173;SDS011;3120;48.796;9.796;2024-01-11T06:27:17;89.05;;;37.47;;
6173;SDS011;3120;48.796;9.796;2024-01-11T06:29:42;110.65;;;36.47;;
6173;SDS011;3120;48.796;9.796;2024-01-11T06:32:08;106.07;;;36.72;;
6173;SDS011;3120;48.796;9.796;2024-01-11T06:34:34;94.80;;;36.58;;
6173;SDS011;3120;48.796;9.796;2024-01-11T06:37:00;93.25;;;36.72;;
6173;SDS011;3120;48.796;9.796;2024-01-11T06:39:27;100.63;;;37.58;;
6173;SDS011;3120;48.796;9.796;2024-01-11T06:41:54;108.70;;;38.35;;
6173;SDS011;3120;48.796;9.796;2024-01-11T06:44:20;102.13;;;39.30;;
6173;SDS011;3120;48.796;9.796;2024-01-11T06:46:46;101.57;;;38.83;;
6173;SDS011;3120;48.796;9.796;2024-01-11T06:49:11;110.30;;;39.08;;
6173;SDS011;3120;48.796;9.796;2024-01-11T06:51:37;102.32;;;35.20;;
6173;SDS011;3120;48.796;9.796;2024-01-11T06:54:04;112.28;;;39.42;;
6173;SDS011;3120;48.796;9.796;2024-01-11T06:56:29;104.68;;;37.65;;
6173;SDS011;3120;48.796;9.796;2024-01-11T06:58:55;107.30;;;39.15;;
6173;SDS011;3120;48.796;9.796;2024-01-11T07:01:21;93.75;;;37.85;;
6173;SDS011;3120;48.796;9.796;2024-01-11T07:03:46;115.32;;;40.10;;
6173;SDS011;3120;48.796;9.796;2024-01-11T07:06:14;107.38;;;38.75;;
6173;SDS011;3120;48.796;9.796;2024-01-11T07:08:40;112.28;;;41.63;;
6173;SDS011;3120;48.796;9.796;2024-01-11T07:11:05;99.63;;;37.33;;
6173;SDS011;3120;48.796;9.796;2024-01-11T07:13:32;106.38;;;41.53;;
6173;SDS011;3120;48.796;9.796;2024-01-11T07:15:58;94.72;;;37.42;;
6173;SDS011;3120;48.796;9.796;2024-01-11T07:18:24;92.07;;;36.95;;
6173;SDS011;3120;48.796;9.796;2024-01-11T07:20:50;91.38;;;38.38;;
6173;SDS011;3120;48.796;9.796;2024-01-11T07:23:16;93.10;;;37.13;;
6173;SDS011;3120;48.796;9.796;2024-01-11T07:25:42;102.82;;;38.10;;
6173;SDS011;3120;48.796;9.796;2024-01-11T07:28:08;105.35;;;38.08;;
6173;SDS011;3120;48.796;9.796;2024-01-11T07:30:33;111.93;;;38.70;;
6173;SDS011;3120;48.796;9.796;2024-01-11T07:32:59;110.07;;;39.47;;
6173;SDS011;3120;48.796;9.796;2024-01-11T07:35:25;108.47;;;41.95;;
6173;SDS011;3120;48.796;9.796;2024-01-11T07:37:50;104.03;;;39.75;;
6173;SDS011;3120;48.796;9.796;2024-01-11T07:40:16;106.78;;;39.70;;
6173;SDS011;3120;48.796;9.796;2024-01-11T07:42:42;115.60;;;40.80;;
6173;SDS011;3120;48.796;9.796;2024-01-11T07:45:08;100.88;;;36.72;;
6173;SDS011;3120;48.796;9.796;2024-01-11T07:47:35;104.80;;;37.25;;
6173;SDS011;3120;48.796;9.796;2024-01-11T07:50:02;102.72;;;40.88;;
6173;SDS011;3120;48.796;9.796;2024-01-11T07:52:31;111.00;;;41.15;;
6173;SDS011;3120;48.796;9.796;2024-01-11T07:54:57;105.75;;;40.25;;
6173;SDS011;3120;48.796;9.796;2024-01-11T07:57:31;107.25;;;41.13;;
6173;SDS011;3120;48.796;9.796;2024-01-11T07:59:59;93.32;;;39.00;;
6173;SDS011;3120;48.796;9.796;2024-01-11T08:02:25;113.32;;;42.13;;
6173;SDS011;3120;48.796;9.796;2024-01-11T08:04:51;118.07;;;44.97;;
6173;SDS011;3120;48.796;9.796;2024-01-11T08:07:17;134.73;;;52.60;;
6173;SDS011;3120;48.796;9.796;2024-01-11T08:09:43;135.60;;;52.65;;
6173;SDS011;3120;48.796;9.796;2024-01-11T08:12:12;117.20;;;43.22;;
6173;SDS011;3120;48.796;9.796;2024-01-11T08:14:40;108.07;;;39.47;;
6173;SDS011;3120;48.796;9.796;2024-01-11T08:17:11;104.55;;;39.63;;
6173;SDS011;3120;48.796;9.796;2024-01-11T08:19:38;98.35;;;38.22;;
6173;SDS011;3120;48.796;9.796;2024-01-11T08:22:04;104.32;;;39.75;;
6173;SDS011;3120;48.796;9.796;2024-01-11T08:24:30;102.50;;;39.60;;
6173;SDS011;3120;48.796;9.796;2024-01-11T08:26:56;108.20;;;41.00;;
6173;SDS011;3120;48.796;9.796;2024-01-11T08:29:22;103.55;;;39.70;;
6173;SDS011;3120;48.796;9.796;2024-01-11T08:31:48;103.95;;;41.00;;
6173;SDS011;3120;48.796;9.796;2024-01-11T08:34:13;92.10;;;37.45;;
6173;SDS011;3120;48.796;9.796;2024-01-11T08:36:39;105.85;;;40.17;;
6173;SDS011;3120;48.796;9.796;2024-01-11T08:39:05;108.35;;;41.25;;
6173;SDS011;3120;48.796;9.796;2024-01-11T08:41:31;98.40;;;39.70;;
6173;SDS011;3120;48.796;9.796;2024-01-11T08:43:58;97.75;;;40.67;;
6173;SDS011;3120;48.796;9.796;2024-01-11T08:46:27;110.65;;;39.45;;
6173;SDS011;3120;48.796;9.796;2024-01-11T08:48:53;95.20;;;37.90;;
6173;SDS011;3120;48.796;9.796;2024-01-11T08:51:21;110.38;;;42.85;;
6173;SDS011;3120;48.796;9.796;2024-01-11T08:53:46;106.38;;;43.03;;
6173;SDS011;3120;48.796;9.796;2024-01-11T08:56:12;101.22;;;41.28;;
6173;SDS011;3120;48.796;9.796;2024-01-11T08:58:39;103.65;;;42.65;;
6173;SDS011;3120;48.796;9.796;2024-01-11T09:01:05;83.65;;;37.83;;
6173;SDS011;3120;48.796;9.796;2024-01-11T09:03:33;97.05;;;37.78;;
6173;SDS011;3120;48.796;9.796;2024-01-11T09:06:02;81.93;;;36.42;;
6173;SDS011;3120;48.796;9.796;2024-01-11T09:08:28;86.07;;;37.13;;
6173;SDS011;3120;48.796;9.796;2024-01-11T09:10:55;84.90;;;39.95;;
6173;SDS011;3120;48.796;9.796;2024-01-11T09:13:20;84.72;;;40.13;;
6173;SDS011;3120;48.796;9.796;2024-01-11T09:15:46;80.03;;;39.78;;
6173;SDS011;3120;48.796;9.796;2024-01-11T09:18:12;83.25;;;38.63;;
6173;SDS011;3120;48.796;9.796;2024-01-11T09:20:37;79.75;;;38.92;;
6173;SDS011;3120;48.796;9.796;2024-01-11T09:23:03;80.50;;;37.80;;
6173;SDS011;3120;48.796;9.796;2024-01-11T09:25:29;82.53;;;38.28;;
6173;SDS011;3120;48.796;9.796;2024-01-11T09:27:55;73.70;;;38.97;;
6173;SDS011;3120;48.796;9.796;2024-01-11T09:30:21;75.35;;;36.92;;
6173;SDS011;3120;48.796;9.796;2024-01-11T09:32:46;70.68;;;37.60;;
6173;SDS011;3120;48.796;9.796;2024-01-11T09:35:12;69.25;;;37.33;;
6173;SDS011;3120;48.796;9.796;2024-01-11T09:37:38;74.40;;;39.78;;
6173;SDS011;3120;48.796;9.796;2024-01-11T09:40:05;86.68;;;43.90;;
6173;SDS011;3120;48.796;9.796;2024-01-11T09:42:35;80.68;;;39.70;;
6173;SDS011;3120;48.796;9.796;2024-01-11T09:45:02;76.95;;;40.58;;
6173;SDS011;3120;48.796;9.796;2024-01-11T09:47:35;87.30;;;39.97;;
6173;SDS011;3120;48.796;9.796;2024-01-11T09:50:02;75.43;;;37.03;;
6173;SDS011;3120;48.796;9.796;2024-01-11T09:52:28;70.63;;;38.45;;
6173;SDS011;3120;48.796;9.796;2024-01-11T09:54:57;76.68;;;39.10;;
6173;SDS011;3120;48.796;9.796;2024-01-11T09:57:29;85.10;;;40.72;;
6173;SDS011;3120;48.796;9.796;2024-01-11T09:59:57;86.22;;;43.35;;
6173;SDS011;3120;48.796;9.796;2024-01-11T10:02:23;85.63;;;41.25;;
6173;SDS011;3120;48.796;9.796;2024-01-11T10:04:53;76.45;;;40.55;;
6173;SDS011;3120;48.796;9.796;2024-01-11T10:07:22;74.82;;;39.35;;
6173;SDS011;3120;48.796;9.796;2024-01-11T10:09:48;71.85;;;39.47;;
6173;SDS011;3120;48.796;9.796;2024-01-11T10:12:14;69.35;;;39.70;;
6173;SDS011;3120;48.796;9.796;2024-01-11T10:14:40;73.57;;;38.72;;
6173;SDS011;3120;48.796;9.796;2024-01-11T10:17:06;71.68;;;38.70;;
6173;SDS011;3120;48.796;9.796;2024-01-11T10:19:32;67.97;;;37.42;;
6173;SDS011;3120;48.796;9.796;2024-01-11T10:21:58;74.30;;;39.28;;
6173;SDS011;3120;48.796;9.796;2024-01-11T10:24:24;72.32;;;39.72;;
6173;SDS011;3120;48.796;9.796;2024-01-11T10:26:56;72.88;;;38.03;;
6173;SDS011;3120;48.796;9.796;2024-01-11T10:29:27;72.38;;;39.10;;
6173;SDS011;3120;48.796;9.796;2024-01-11T10:31:55;75.25;;;39.08;;
6173;SDS011;3120;48.796;9.796;2024-01-11T10:34:22;72.47;;;37.83;;
6173;SDS011;3120;48.796;9.796;2024-01-11T10:36:49;68.75;;;36.05;;
6173;SDS011;3120;48.796;9.796;2024-01-11T10:39:15;68.20;;;38.22;;
6173;SDS011;3120;48.796;9.796;2024-01-11T10:41:45;68.57;;;37.85;;
6173;SDS011;3120;48.796;9.796;2024-01-11T10:44:18;75.85;;;39.97;;
6173;SDS011;3120;48.796;9.796;2024-01-11T10:46:47;68.32;;;37.10;;
6173;SDS011;3120;48.796;9.796;2024-01-11T10:49:16;65.75;;;36.78;;
6173;SDS011;3120;48.796;9.796;2024-01-11T10:51:44;73.28;;;38.78;;
6173;SDS011;3120;48.796;9.796;2024-01-11T10:54:18;69.35;;;37.75;;
6173;SDS011;3120;48.796;9.796;2024-01-11T10:56:45;70.25;;;37.35;;
6173;SDS011;3120;48.796;9.796;2024-01-11T10:59:12;68.22;;;37.20;;
6173;SDS011;3120;48.796;9.796;2024-01-11T11:01:39;73.85;;;39.47;;
6173;SDS011;3120;48.796;9.796;2024-01-11T11:04:04;67.95;;;36.13;;
6173;SDS011;3120;48.796;9.796;2024-01-11T11:06:32;73.70;;;38.53;;
6173;SDS011;3120;48.796;9.796;2024-01-11T11:09:00;68.93;;;37.75;;
6173;SDS011;3120;48.796;9.796;2024-01-11T11:11:28;70.82;;;38.83;;
6173;SDS011;3120;48.796;9.796;2024-01-11T11:13:57;65.93;;;37.28;;
6173;SDS011;3120;48.796;9.796;2024-01-11T11:16:25;65.85;;;33.15;;
6173;SDS011;3120;48.796;9.796;2024-01-11T11:18:54;65.15;;;35.80;;
6173;SDS011;3120;48.796;9.796;2024-01-11T11:21:21;65.75;;;35.78;;
6173;SDS011;3120;48.796;9.796;2024-01-11T11:23:49;66.07;;;34.70;;
6173;SDS011;3120;48.796;9.796;2024-01-11T11:26:16;64.63;;;37.17;;
6173;SDS011;3120;48.796;9.796;2024-01-11T11:28:46;65.00;;;35.95;;
6173;SDS011;3120;48.796;9.796;2024-01-11T11:31:13;68.05;;;38.42;;
6173;SDS011;3120;48.796;9.796;2024-01-11T11:34:00;62.65;;;37.50;;
6173;SDS011;3120;48.796;9.796;2024-01-11T11:36:28;69.10;;;38.58;;
6173;SDS011;3120;48.796;9.796;2024-01-11T11:38:55;66.38;;;36.28;;
6173;SDS011;3120;48.796;9.796;2024-01-11T11:41:25;61.00;;;34.63;;
6173;SDS011;3120;48.796;9.796;2024-01-11T11:43:51;63.70;;;34.00;;
6173;SDS011;3120;48.796;9.796;2024-01-11T11:46:17;65.75;;;34.47;;
6173;SDS011;3120;48.796;9.796;2024-01-11T11:51:12;56.10;;;32.15;;
6173;SDS011;3120;48.796;9.796;2024-01-11T11:53:40;63.55;;;35.95;;
6173;SDS011;3120;48.796;9.796;2024-01-11T11:56:07;64.53;;;35.42;;
6173;SDS011;3120;48.796;9.796;2024-01-11T11:58:37;62.75;;;34.08;;
6173;SDS011;3120;48.796;9.796;2024-01-11T12:01:07;68.47;;;34.15;;
6173;SDS011;3120;48.796;9.796;2024-01-11T12:03:41;61.25;;;36.28;;
6173;SDS011;3120;48.796;9.796;2024-01-11T12:06:08;62.92;;;33.88;;
6173;SDS011;3120;48.796;9.796;2024-01-11T12:08:35;63.90;;;35.10;;
6173;SDS011;3120;48.796;9.796;2024-01-11T12:11:02;60.65;;;35.05;;
6173;SDS011;3120;48.796;9.796;2024-01-11T12:13:28;63.97;;;35.92;;
6173;SDS011;3120;48.796;9.796;2024-01-11T12:15:56;67.05;;;36.83;;
6173;SDS011;3120;48.796;9.796;2024-01-11T12:18:21;66.45;;;35.50;;
6173;SDS011;3120;48.796;9.796;2024-01-11T12:20:47;66.10;;;36.88;;
6173;SDS011;3120;48.796;9.796;2024-01-11T12:23:13;61.90;;;36.05;;
6173;SDS011;3120;48.796;9.796;2024-01-11T12:25:42;61.75;;;36.20;;
6173;SDS011;3120;48.796;9.796;2024-01-11T12:28:08;60.75;;;34.20;;
6173;SDS011;3120;48.796;9.796;2024-01-11T12:30:34;63.67;;;36.30;;
6173;SDS011;3120;48.796;9.796;2024-01-11T12:33:00;66.47;;;37.28;;
6173;SDS011;3120;48.796;9.796;2024-01-11T12:35:26;68.80;;;36.97;;
6173;SDS011;3120;48.796;9.796;2024-01-11T12:37:55;63.83;;;37.13;;
6173;SDS011;3120;48.796;9.796;2024-01-11T12:40:24;68.53;;;37.35;;
6173;SDS011;3120;48.796;9.796;2024-01-11T12:42:52;69.82;;;37.58;;
6173;SDS011;3120;48.796;9.796;2024-01-11T12:45:18;63.00;;;37.45;;
6173;SDS011;3120;48.796;9.796;2024-01-11T12:47:44;72.38;;;36.83;;
6173;SDS011;3120;48.796;9.796;2024-01-11T12:50:11;69.57;;;37.25;;
6173;SDS011;3120;48.796;9.796;2024-01-11T12:52:39;73.88;;;39.10;;
6173;SDS011;3120;48.796;9.796;2024-01-11T12:55:07;72.22;;;39.42;;
6173;SDS011;3120;48.796;9.796;2024-01-11T12:57:33;69.72;;;36.05;;
6173;SDS011;3120;48.796;9.796;2024-01-11T13:00:09;69.05;;;35.78;;
6173;SDS011;3120;48.796;9.796;2024-01-11T13:02:35;60.65;;;33.50;;
6173;SDS011;3120;48.796;9.796;2024-01-11T13:05:01;63.72;;;34.95;;
6173;SDS011;3120;48.796;9.796;2024-01-11T13:07:27;69.65;;;36.88;;
6173;SDS011;3120;48.796;9.796;2024-01-11T13:09:53;74.20;;;36.95;;
6173;SDS011;3120;48.796;9.796;2024-01-11T13:12:19;67.60;;;34.80;;
6173;SDS011;3120;48.796;9.796;2024-01-11T13:14:45;68.30;;;36.13;;
6173;SDS011;3120;48.796;9.796;2024-01-11T13:17:12;70.15;;;36.97;;
6173;SDS011;3120;48.796;9.796;2024-01-11T13:19:38;60.35;;;34.25;;
6173;SDS011;3120;48.796;9.796;2024-01-11T13:22:04;63.67;;;33.45;;
6173;SDS011;3120;48.796;9.796;2024-01-11T13:24:29;59.17;;;35.70;;
6173;SDS011;3120;48.796;9.796;2024-01-11T13:26:55;66.20;;;37.58;;
6173;SDS011;3120;48.796;9.796;2024-01-11T13:29:20;68.75;;;36.53;;
6173;SDS011;3120;48.796;9.796;2024-01-11T13:31:47;83.90;;;36.97;;
6173;SDS011;3120;48.796;9.796;2024-01-11T13:34:12;75.32;;;37.03;;
6173;SDS011;3120;48.796;9.796;2024-01-11T13:36:38;85.00;;;38.40;;
6173;SDS011;3120;48.796;9.796;2024-01-11T13:39:03;95.03;;;40.35;;
6173;SDS011;3120;48.796;9.796;2024-01-11T13:41:29;101.63;;;41.65;;
6173;SDS011;3120;48.796;9.796;2024-01-11T13:43:55;80.80;;;35.25;;
6173;SDS011;3120;48.796;9.796;2024-01-11T13:46:20;67.85;;;34.00;;
6173;SDS011;3120;48.796;9.796;2024-01-11T13:48:46;69.32;;;33.85;;
6173;SDS011;3120;48.796;9.796;2024-01-11T13:51:12;70.68;;;35.03;;
6173;SDS011;3120;48.796;9.796;2024-01-11T13:53:40;82.95;;;34.65;;
6173;SDS011;3120;48.796;9.796;2024-01-11T13:56:05;75.18;;;35.75;;
6173;SDS011;3120;48.796;9.796;2024-01-11T13:58:31;72.40;;;33.75;;
6173;SDS011;3120;48.796;9.796;2024-01-11T14:00:57;77.60;;;35.35;;
6173;SDS011;3120;48.796;9.796;2024-01-11T14:03:23;73.82;;;34.33;;
6173;SDS011;3120;48.796;9.796;2024-01-11T14:05:49;72.28;;;33.33;;
6173;SDS011;3120;48.796;9.796;2024-01-11T14:08:15;73.07;;;34.03;;
6173;SDS011;3120;48.796;9.796;2024-01-11T14:10:40;72.90;;;34.30;;
6173;SDS011;3120;48.796;9.796;2024-01-11T14:13:06;69.95;;;32.30;;
6173;SDS011;3120;48.796;9.796;2024-01-11T14:15:31;77.57;;;32.78;;
6173;SDS011;3120;48.796;9.796;2024-01-11T14:17:57;74.47;;;32.47;;
6173;SDS011;3120;48.796;9.796;2024-01-11T14:20:22;72.32;;;32.60;;
6173;SDS011;3120;48.796;9.796;2024-01-11T14:22:49;70.90;;;32.60;;
6173;SDS011;3120;48.796;9.796;2024-01-11T14:25:15;68.45;;;32.70;;
6173;SDS011;3120;48.796;9.796;2024-01-11T14:27:42;73.22;;;32.75;;
6173;SDS011;3120;48.796;9.796;2024-01-11T14:30:09;73.03;;;32.13;;
6173;SDS011;3120;48.796;9.796;2024-01-11T14:32:36;65.20;;;32.13;;
6173;SDS011;3120;48.796;9.796;2024-01-11T14:35:02;73.63;;;31.98;;
6173;SDS011;3120;48.796;9.796;2024-01-11T14:37:32;75.07;;;33.60;;
6173;SDS011;3120;48.796;9.796;2024-01-11T14:39:59;78.57;;;33.10;;